createdAt,value
2018-12-16T11:43:30.200Z,50.17
2018-12-16T11:45:58.313Z,80.60
2018-12-16T11:48:26.357Z,54.63
2018-12-16T11:50:54.416Z,55.27
2018-12-16T11:53:22.531Z,57.67
2018-12-16T11:55:50.565Z,56.97
2018-12-16T11:58:18.612Z,105.03
2018-12-16T12:00:46.752Z,81.93
2018-12-16T12:03:14.901Z,95.87
2018-12-16T12:05:44.920Z,77.03
2018-12-16T12:08:12.965Z,68.30
2018-12-16T12:10:41.081Z,69.30
2018-12-16T12:13:09.229Z,71.80
2018-12-16T12:15:37.304Z,55.77
2018-12-16T12:18:05.400Z,53.40
2018-12-16T12:20:33.439Z,88.63
2018-12-16T12:23:01.492Z,62.83
2018-12-16T12:25:29.629Z,56.47
2018-12-16T12:27:57.780Z,60.70
2018-12-16T12:30:25.897Z,57.27
2018-12-16T12:32:54.008Z,53.73
2018-12-16T12:35:22.097Z,50.13
2018-12-16T12:37:50.170Z,50.17
2018-12-16T12:40:18.226Z,52.77
2018-12-16T12:42:46.272Z,51.93
2018-12-16T12:45:14.725Z,79.20
2018-12-16T12:47:42.864Z,96.90
2018-12-16T12:50:10.944Z,112.53
2018-12-16T12:52:38.986Z,85.53
2018-12-16T12:55:07.067Z,75.73
2018-12-16T12:57:35.268Z,69.63
2018-12-16T13:00:05.801Z,60.63
2018-12-16T13:02:33.980Z,54.10
2018-12-16T13:05:02.112Z,55.73
2018-12-16T13:07:30.226Z,47.20
2018-12-16T13:09:58.394Z,57.53
2018-12-16T13:12:26.436Z,44.27
2018-12-16T13:14:54.583Z,51.03
2018-12-16T13:17:22.701Z,46.13
2018-12-16T13:19:50.740Z,52.73
2018-12-16T13:22:18.780Z,106.97
2018-12-16T13:24:58.897Z,57.30
2018-12-16T13:27:27.062Z,105.00
2018-12-16T13:29:55.137Z,93.90
2018-12-16T13:32:23.205Z,69.30
2018-12-16T13:34:51.253Z,123.07
2018-12-16T13:37:19.353Z,127.23
2018-12-16T13:39:47.419Z,131.57
2018-12-16T13:42:15.593Z,86.60
2018-12-16T13:44:43.663Z,67.57
2018-12-16T13:47:11.794Z,65.03
2018-12-16T13:49:39.841Z,80.00
2018-12-16T13:52:07.970Z,70.93
2018-12-16T13:54:36.135Z,54.77
2018-12-16T13:57:04.151Z,60.53
2018-12-16T13:59:32.278Z,60.73
2018-12-16T14:02:00.856Z,68.13
2018-12-16T14:04:29.235Z,64.73
2018-12-16T14:06:57.412Z,95.20
2018-12-16T14:09:25.608Z,67.57
2018-12-16T14:11:53.962Z,63.30
2018-12-16T14:14:22.135Z,71.63
2018-12-16T14:16:50.215Z,76.27
2018-12-16T14:19:18.504Z,84.70
2018-12-16T14:21:46.863Z,71.27
2018-12-16T14:24:15.133Z,93.87
2018-12-16T14:26:43.229Z,128.23
2018-12-16T14:29:11.313Z,266.17
2018-12-16T14:31:39.458Z,82.17
2018-12-16T14:34:07.539Z,67.57
2018-12-16T14:36:35.629Z,57.17
2018-12-16T14:39:05.730Z,114.17
2018-12-16T14:41:34.848Z,280.63
2018-12-16T14:44:02.957Z,222.77
2018-12-16T14:46:31.117Z,318.30
2018-12-16T14:48:59.157Z,199.10
2018-12-16T14:51:27.231Z,207.33
2018-12-16T14:53:55.259Z,259.60
2018-12-16T14:56:23.343Z,187.60
2018-12-16T14:58:51.544Z,226.13
2018-12-16T15:01:19.608Z,207.67
2018-12-16T15:03:47.685Z,141.83
2018-12-16T15:06:15.730Z,102.50
2018-12-16T15:08:43.989Z,159.77
2018-12-16T15:11:12.281Z,71.13
2018-12-16T15:13:40.305Z,63.53
2018-12-16T15:16:10.125Z,77.50
2018-12-16T15:18:38.347Z,80.50
2018-12-16T15:21:06.385Z,65.87
2018-12-16T15:23:34.412Z,68.13
2018-12-16T15:26:02.474Z,61.13
2018-12-16T15:28:30.504Z,231.90
2018-12-16T15:30:58.628Z,271.23
2018-12-16T15:33:26.714Z,221.97
2018-12-16T15:35:54.748Z,139.10
2018-12-16T15:38:22.840Z,378.37
2018-12-16T15:40:50.886Z,113.77
2018-12-16T15:43:18.915Z,76.17
2018-12-16T15:45:47.053Z,74.33
2018-12-16T15:48:15.103Z,72.73
2018-12-16T15:50:43.152Z,60.20
2018-12-16T15:53:11.193Z,73.70
2018-12-16T15:55:39.349Z,71.10
2018-12-16T15:58:07.373Z,74.20
2018-12-16T16:00:35.517Z,67.87
2018-12-16T16:03:03.649Z,125.07
2018-12-16T16:05:31.743Z,77.23
2018-12-16T16:07:59.805Z,72.73
2018-12-16T16:10:27.878Z,84.60
2018-12-16T16:12:55.977Z,78.60
2018-12-16T16:15:24.116Z,92.63
2018-12-16T16:17:53.337Z,88.13
2018-12-16T16:20:21.613Z,78.80
2018-12-16T16:22:49.705Z,90.10
2018-12-16T16:25:17.843Z,75.90
2018-12-16T16:27:46.030Z,71.77
2018-12-16T16:30:14.148Z,73.63
2018-12-16T16:32:42.293Z,65.00
2018-12-16T16:35:10.335Z,68.80
2018-12-16T16:37:40.247Z,65.70
2018-12-16T16:40:08.469Z,64.97
2018-12-16T16:42:36.606Z,74.03
2018-12-16T16:45:04.959Z,82.10
2018-12-16T16:47:34.210Z,104.37
2018-12-16T16:50:02.355Z,106.57
2018-12-16T16:52:30.461Z,93.33
2018-12-16T16:54:58.569Z,66.20
2018-12-16T16:57:26.708Z,66.23
2018-12-16T16:59:54.776Z,70.87
2018-12-16T17:02:22.818Z,62.67
2018-12-16T17:04:50.876Z,61.03
2018-12-16T17:07:18.949Z,60.87
2018-12-16T17:09:47.234Z,54.53
2018-12-16T17:12:15.337Z,55.73
2018-12-16T17:14:43.486Z,53.10
2018-12-16T17:17:11.557Z,50.27
2018-12-16T17:19:39.663Z,61.83
2018-12-16T17:22:08.106Z,59.87
2018-12-16T17:24:36.196Z,68.43
2018-12-16T17:27:04.386Z,60.03
2018-12-16T17:29:32.434Z,80.20
2018-12-16T17:32:00.623Z,69.00
2018-12-16T17:34:28.915Z,57.87
2018-12-16T17:36:56.921Z,53.57
2018-12-16T17:39:25.032Z,67.30
2018-12-16T17:41:53.194Z,75.90
2018-12-16T17:44:21.309Z,72.83
2018-12-16T17:46:49.540Z,74.70
2018-12-16T17:49:17.658Z,76.87
2018-12-16T17:51:45.844Z,60.10
2018-12-16T17:54:13.964Z,51.40
2018-12-16T17:56:42.020Z,55.00
2018-12-16T17:59:10.105Z,61.80
2018-12-16T18:01:38.236Z,138.10
2018-12-16T18:04:08.209Z,97.27
2018-12-16T18:06:36.261Z,98.13
2018-12-16T18:09:05.903Z,68.33
2018-12-16T18:11:33.976Z,83.10
2018-12-16T18:14:02.051Z,72.73
2018-12-16T18:16:30.089Z,70.97
2018-12-16T18:18:58.121Z,70.20
2018-12-16T18:21:26.261Z,78.73
2018-12-16T18:23:54.356Z,101.77
2018-12-16T18:26:22.474Z,158.83
2018-12-16T18:28:50.563Z,184.87
2018-12-16T18:31:18.593Z,132.87
2018-12-16T18:33:46.697Z,67.67
2018-12-16T18:36:14.860Z,67.03
2018-12-16T18:38:43.030Z,157.43
2018-12-16T18:41:11.103Z,188.03
2018-12-16T18:43:39.202Z,151.87
2018-12-16T18:46:07.353Z,90.47
2018-12-16T18:48:35.421Z,66.13
2018-12-16T18:51:03.474Z,111.93
2018-12-16T18:53:31.499Z,73.77
2018-12-16T18:55:59.641Z,62.60
2018-12-16T18:58:27.742Z,62.43
2018-12-16T19:00:55.901Z,51.03
2018-12-16T19:03:24.949Z,53.07
2018-12-16T19:05:52.984Z,64.70
2018-12-16T19:08:21.124Z,96.50
2018-12-16T19:10:49.380Z,109.33
2018-12-16T19:13:17.437Z,74.60
2018-12-16T19:15:45.576Z,58.13
2018-12-16T19:18:13.637Z,51.37
2018-12-16T19:20:41.915Z,58.10
2018-12-16T19:23:10.096Z,51.53
2018-12-16T19:25:38.235Z,69.67
2018-12-16T19:28:06.347Z,69.73
2018-12-16T19:30:34.578Z,77.83
2018-12-16T19:33:02.936Z,121.20
2018-12-16T19:35:32.052Z,62.17
2018-12-16T19:38:01.665Z,56.00
2018-12-16T19:40:30.400Z,47.57
2018-12-16T19:42:58.542Z,47.93
2018-12-16T19:45:26.686Z,49.73
2018-12-16T19:47:54.819Z,59.63
2018-12-16T19:50:22.933Z,53.10
2018-12-16T19:52:51.161Z,70.63
2018-12-16T19:55:19.638Z,58.47
2018-12-16T19:57:47.795Z,54.37
2018-12-16T20:00:15.865Z,50.43
2018-12-16T20:02:43.906Z,60.77
2018-12-16T20:05:21.761Z,70.77
2018-12-16T20:07:49.967Z,80.20
2018-12-16T20:10:18.076Z,64.57
2018-12-16T20:12:46.147Z,56.33
2018-12-16T20:15:14.236Z,52.73
2018-12-16T20:17:42.293Z,47.80
2018-12-16T20:20:11.623Z,53.03
2018-12-16T20:22:39.703Z,58.83
2018-12-16T20:25:07.775Z,67.23
2018-12-16T20:27:35.816Z,64.77
2018-12-16T20:30:06.577Z,76.87
2018-12-16T20:32:34.617Z,65.67
2018-12-16T20:35:02.831Z,64.27
2018-12-16T20:37:30.959Z,74.17
2018-12-16T20:39:59.038Z,92.23
2018-12-16T20:42:27.085Z,76.73
2018-12-16T20:44:55.177Z,64.87
2018-12-16T20:47:23.306Z,65.87
2018-12-16T20:49:51.429Z,67.03
2018-12-16T20:52:20.661Z,66.33
2018-12-16T20:54:48.874Z,66.70
2018-12-16T20:57:18.910Z,58.37
2018-12-16T20:59:46.967Z,51.60
2018-12-16T21:02:15.055Z,45.73
2018-12-16T21:04:43.123Z,52.67
2018-12-16T21:07:11.206Z,48.53
2018-12-16T21:09:39.370Z,57.00
2018-12-16T21:12:09.333Z,52.17
2018-12-16T21:14:43.176Z,50.80
2018-12-16T21:17:16.853Z,64.83
2018-12-16T21:19:44.968Z,67.80
2018-12-16T21:22:13.001Z,69.77
2018-12-16T21:24:41.024Z,61.57
2018-12-16T21:27:09.300Z,61.53
2018-12-16T21:29:37.361Z,69.63
2018-12-16T21:32:05.445Z,61.83
2018-12-16T21:34:33.508Z,61.10
2018-12-16T21:37:01.559Z,51.57
2018-12-16T21:39:29.648Z,66.93
2018-12-16T21:41:57.681Z,53.23
2018-12-16T21:44:25.784Z,53.43
2018-12-16T21:46:53.864Z,50.77
2018-12-16T21:49:21.900Z,49.97
2018-12-16T21:51:49.996Z,47.07
2018-12-16T21:54:18.029Z,50.80
2018-12-16T21:56:46.150Z,59.87
2018-12-16T21:59:14.243Z,71.80
2018-12-16T22:01:42.413Z,52.47
2018-12-16T22:04:10.549Z,47.70
2018-12-16T22:06:38.653Z,47.83
2018-12-16T22:09:07.029Z,52.77
2018-12-16T22:11:36.058Z,83.37
2018-12-16T22:14:04.125Z,61.93
2018-12-16T22:16:32.134Z,52.43
2018-12-16T22:19:00.219Z,63.10
2018-12-16T22:21:28.275Z,58.07
2018-12-16T22:23:56.304Z,47.40
2018-12-16T22:26:24.378Z,56.70
2018-12-16T22:28:52.405Z,46.43
2018-12-16T22:31:20.474Z,47.63
2018-12-16T22:33:48.508Z,53.47
2018-12-16T22:36:16.537Z,57.50
2018-12-16T22:38:44.590Z,50.87
2018-12-16T22:41:12.645Z,55.77
2018-12-16T22:43:40.896Z,52.87
2018-12-16T22:46:08.953Z,49.43
2018-12-16T22:48:36.982Z,50.53
2018-12-16T22:51:05.004Z,53.27
2018-12-16T22:53:33.051Z,46.73
2018-12-16T22:56:01.150Z,43.10
2018-12-16T22:58:29.200Z,46.50
2018-12-16T23:01:02.818Z,44.77
2018-12-16T23:03:31.901Z,48.50
2018-12-16T23:06:01.862Z,48.93
2018-12-16T23:08:29.896Z,43.80
2018-12-16T23:10:58.028Z,53.30
2018-12-16T23:13:27.126Z,44.20
2018-12-16T23:15:55.209Z,49.57
2018-12-16T23:18:23.282Z,45.03
2018-12-16T23:20:51.309Z,44.00
2018-12-16T23:23:19.349Z,51.27
2018-12-16T23:25:47.380Z,48.83
2018-12-16T23:28:15.751Z,48.27
2018-12-16T23:30:43.834Z,46.70
2018-12-16T23:33:11.913Z,46.43
2018-12-16T23:35:39.939Z,44.77
2018-12-16T23:38:07.971Z,39.17
2018-12-16T23:40:36.008Z,46.50
2018-12-16T23:43:04.042Z,42.73
2018-12-16T23:45:32.076Z,49.30
2018-12-16T23:48:00.113Z,44.03
2018-12-16T23:50:28.207Z,41.27
2018-12-16T23:52:56.236Z,42.93
2018-12-16T23:55:24.261Z,38.07
2018-12-16T23:57:52.296Z,42.90
